createdAt,value
2023-03-07T00:02:52.292Z,99212.97
2023-03-07T00:06:07.002Z,99212.19
2023-03-07T00:09:10.057Z,99205.22
2023-03-07T00:12:12.472Z,99204.19
2023-03-07T00:15:14.753Z,99205.22
2023-03-07T00:18:17.136Z,99205.00
2023-03-07T00:21:21.304Z,99193.53
2023-03-07T00:24:23.688Z,99201.13
2023-03-07T00:27:26.041Z,99200.91
2023-03-07T00:30:28.325Z,99195.81
2023-03-07T00:33:30.803Z,99187.78
2023-03-07T00:36:33.306Z,99191.69
2023-03-07T00:42:36.938Z,99189.81
2023-03-07T00:45:39.255Z,99185.53
2023-03-07T00:48:41.764Z,99183.28
2023-03-07T00:51:44.044Z,99178.38
2023-03-07T00:54:46.407Z,99167.53
2023-03-07T00:57:48.826Z,99169.75
2023-03-07T01:00:51.558Z,99161.38
2023-03-07T01:03:54.494Z,99165.47
2023-03-07T01:06:56.890Z,99165.88
2023-03-07T01:09:59.368Z,99161.16
2023-03-07T01:13:01.769Z,99154.81
2023-03-07T01:16:14.234Z,99150.94
2023-03-07T01:19:17.668Z,99116.34
2023-03-07T01:22:19.969Z,99148.69
2023-03-07T01:25:22.560Z,99150.53
2023-03-07T01:28:25.043Z,99148.50
2023-03-07T01:31:28.015Z,99144.78
2023-03-07T01:34:30.953Z,99144.19
2023-03-07T01:37:33.415Z,99147.06
2023-03-07T01:40:39.083Z,99132.88
2023-03-07T01:43:42.436Z,99133.91
2023-03-07T01:46:55.359Z,99128.00
2023-03-07T01:50:12.644Z,99128.41
2023-03-07T01:53:16.598Z,99130.44
2023-03-07T01:56:21.502Z,99129.25
2023-03-07T01:59:35.036Z,99131.91
2023-03-07T02:02:40.261Z,99116.13
2023-03-07T02:05:54.527Z,99125.53
2023-03-07T02:08:57.567Z,99120.84
2023-03-07T02:12:01.770Z,99125.34
2023-03-07T02:15:05.979Z,99115.94
2023-03-07T02:18:09.169Z,99106.34
2023-03-07T02:21:24.863Z,99119.84
2023-03-07T02:24:34.358Z,99113.06
2023-03-07T02:27:37.877Z,99116.75
2023-03-07T02:30:57.116Z,99099.38
2023-03-07T02:34:00.876Z,99096.31
2023-03-07T02:37:20.290Z,99099.41
2023-03-07T02:40:25.465Z,99101.66
2023-03-07T02:43:28.408Z,99107.38
2023-03-07T02:46:30.868Z,99096.13
2023-03-07T02:49:33.491Z,99098.38
2023-03-07T02:52:35.847Z,99103.28
2023-03-07T02:55:38.233Z,99093.44
2023-03-07T02:58:41.691Z,99071.38
2023-03-07T03:01:44.085Z,99074.63
2023-03-07T03:04:46.689Z,99083.06
2023-03-07T03:07:49.603Z,99084.44
2023-03-07T03:10:55.396Z,99077.91
2023-03-07T03:14:00.502Z,99076.06
2023-03-07T03:17:04.569Z,99073.81
2023-03-07T03:20:08.975Z,99074.84
2023-03-07T03:23:11.454Z,99072.56
2023-03-07T03:26:13.953Z,99068.09
2023-03-07T03:29:16.361Z,99066.63
2023-03-07T03:32:18.907Z,99068.72
2023-03-07T03:35:21.301Z,99060.72
2023-03-07T03:38:24.341Z,99064.19
2023-03-07T03:41:27.271Z,99059.31
2023-03-07T03:44:30.175Z,99060.31
2023-03-07T03:47:33.384Z,99054.19
2023-03-07T03:50:36.106Z,99057.66
2023-03-07T03:53:39.863Z,99058.88
2023-03-07T03:56:42.214Z,99064.44
2023-03-07T03:59:45.510Z,99049.28
2023-03-07T04:02:49.337Z,99042.94
2023-03-07T04:05:53.655Z,99043.72
2023-03-07T04:08:56.390Z,99043.94
2023-03-07T04:11:58.937Z,99034.75
2023-03-07T04:15:01.942Z,99023.72
2023-03-07T04:18:04.492Z,99035.56
2023-03-07T04:21:07.627Z,99015.13
2023-03-07T04:24:10.522Z,99026.34
2023-03-07T04:27:12.912Z,99021.84
2023-03-07T04:30:15.546Z,99025.50
2023-03-07T04:33:17.911Z,99008.97
2023-03-07T04:36:20.693Z,99015.50
2023-03-07T04:39:23.228Z,99002.59
2023-03-07T04:42:27.309Z,98991.78
2023-03-07T04:45:31.802Z,98995.66
2023-03-07T04:48:34.370Z,98989.34
2023-03-07T04:51:36.891Z,98990.53
2023-03-07T04:54:41.010Z,98974.38
2023-03-07T04:57:43.912Z,98968.69
2023-03-07T05:00:48.275Z,98971.97
2023-03-07T05:03:50.933Z,98943.34
2023-03-07T05:06:55.731Z,98972.97
2023-03-07T05:09:58.177Z,98967.44
2023-03-07T05:13:01.780Z,98958.47
2023-03-07T05:16:04.448Z,98962.75
2023-03-07T05:19:07.484Z,98963.19
2023-03-07T05:22:09.983Z,98939.06
2023-03-07T05:25:12.637Z,98957.03
2023-03-07T05:28:17.086Z,98965.22
2023-03-07T05:31:19.532Z,98952.31
2023-03-07T05:34:22.511Z,98954.78
2023-03-07T05:37:25.145Z,98949.84
2023-03-07T05:40:27.892Z,98937.59
2023-03-07T05:43:30.359Z,98936.13
2023-03-07T05:46:33.207Z,98920.31
2023-03-07T05:49:35.992Z,98923.16
2023-03-07T05:52:38.768Z,98922.78
2023-03-07T05:55:41.487Z,98910.53
2023-03-07T05:58:44.274Z,98907.81
2023-03-07T06:01:46.858Z,98904.34
2023-03-07T06:04:49.772Z,98903.72
2023-03-07T06:07:52.142Z,98902.34
2023-03-07T06:10:55.053Z,98890.44
2023-03-07T06:13:58.114Z,98895.28
2023-03-07T06:17:02.154Z,98880.75
2023-03-07T06:20:04.963Z,98893.44
2023-03-07T06:23:07.589Z,98888.63
2023-03-07T06:26:12.497Z,98890.13
2023-03-07T06:29:16.406Z,98875.44
2023-03-07T06:32:18.734Z,98871.38
2023-03-07T06:35:21.610Z,98872.50
2023-03-07T06:38:25.994Z,98869.72
2023-03-07T06:41:28.810Z,98866.00
2023-03-07T06:44:33.482Z,98863.28
2023-03-07T06:47:35.813Z,98864.88
2023-03-07T06:50:39.622Z,98858.88
2023-03-07T06:53:42.361Z,98850.69
2023-03-07T06:56:45.635Z,98848.94
2023-03-07T06:59:53.814Z,98849.50
2023-03-07T07:02:56.524Z,98836.56
2023-03-07T07:05:59.289Z,98808.50
2023-03-07T07:09:02.007Z,98834.22
2023-03-07T07:12:09.521Z,98841.34
2023-03-07T07:15:12.314Z,98838.72
2023-03-07T07:18:14.756Z,98830.69
2023-03-07T07:21:18.361Z,98835.38
2023-03-07T07:24:23.776Z,98824.28
2023-03-07T07:27:28.672Z,98827.16
2023-03-07T07:30:32.009Z,98817.72
2023-03-07T07:33:35.890Z,98816.50
2023-03-07T07:36:39.997Z,98809.31
2023-03-07T07:39:44.027Z,98815.94
2023-03-07T07:42:56.034Z,98813.63
2023-03-07T07:46:13.956Z,98801.84
2023-03-07T07:49:18.512Z,98808.72
2023-03-07T07:52:21.548Z,98799.94
2023-03-07T07:55:25.192Z,98800.00
2023-03-07T07:58:27.868Z,98790.53
2023-03-07T08:01:30.909Z,98792.00
2023-03-07T08:04:33.495Z,98781.41
2023-03-07T08:07:35.865Z,98781.56
2023-03-07T08:10:43.135Z,98774.50
2023-03-07T08:13:45.738Z,98762.28
2023-03-07T08:16:48.174Z,98759.91
2023-03-07T08:19:50.905Z,98763.16
2023-03-07T08:22:54.033Z,98739.38
2023-03-07T08:25:56.430Z,98735.66
2023-03-07T08:28:59.099Z,98753.78
2023-03-07T08:32:02.033Z,98728.00
2023-03-07T08:35:04.592Z,98729.72
2023-03-07T08:38:07.023Z,98712.06
2023-03-07T08:41:09.987Z,98725.91
2023-03-07T08:44:12.397Z,98725.34
2023-03-07T08:47:14.958Z,98710.59
2023-03-07T08:50:17.637Z,98714.09
2023-03-07T08:53:20.368Z,98713.44
2023-03-07T08:56:22.751Z,98732.72
2023-03-07T08:59:25.229Z,98690.34
2023-03-07T09:02:27.578Z,98708.56
2023-03-07T09:05:30.545Z,98683.81
2023-03-07T09:08:33.513Z,98685.44
2023-03-07T09:11:36.205Z,98671.34
2023-03-07T09:14:38.621Z,98659.34
2023-03-07T09:17:41.101Z,98658.03
2023-03-07T09:20:43.553Z,98666.72
2023-03-07T09:23:45.991Z,98659.69
2023-03-07T09:26:48.349Z,98645.19
2023-03-07T09:29:50.940Z,98646.03
2023-03-07T09:32:53.484Z,98642.03
2023-03-07T09:35:55.984Z,98634.94
2023-03-07T09:38:58.484Z,98618.28
2023-03-07T09:42:22.565Z,98610.31
2023-03-07T09:45:34.188Z,98609.16
2023-03-07T09:48:51.426Z,98608.91
2023-03-07T09:51:59.505Z,98601.75
2023-03-07T09:55:16.767Z,98595.94
2023-03-07T09:58:23.246Z,98590.94
2023-03-07T10:01:27.677Z,98595.69
2023-03-07T10:05:02.165Z,98595.59
2023-03-07T10:08:05.566Z,98565.34
2023-03-07T10:11:41.273Z,98572.56
2023-03-07T10:15:03.824Z,98558.38
2023-03-07T10:18:15.327Z,98551.41
2023-03-07T10:21:40.804Z,98555.03
2023-03-07T10:25:01.035Z,98562.88
2023-03-07T10:28:18.249Z,98551.63
2023-03-07T10:31:34.870Z,98548.06
2023-03-07T10:34:38.167Z,98534.25
2023-03-07T10:37:56.701Z,98545.38
2023-03-07T10:41:12.746Z,98533.84
2023-03-07T10:44:19.319Z,98529.53
2023-03-07T10:47:28.928Z,98526.16
2023-03-07T10:50:41.029Z,98505.16
2023-03-07T10:53:43.459Z,98514.88
2023-03-07T10:57:16.510Z,98508.63
2023-03-07T11:00:19.351Z,98485.50
2023-03-07T11:03:31.238Z,98482.75
2023-03-07T11:06:44.783Z,98479.91
2023-03-07T11:09:48.624Z,98473.53
2023-03-07T11:12:51.639Z,98464.16
2023-03-07T11:16:12.043Z,98451.16
2023-03-07T11:19:45.534Z,98442.75
2023-03-07T11:22:48.079Z,98441.75
2023-03-07T11:25:55.010Z,98430.22
2023-03-07T11:29:12.225Z,98437.44
2023-03-07T11:32:33.015Z,98431.81
2023-03-07T11:35:43.754Z,98425.72
2023-03-07T11:39:01.842Z,98416.53
2023-03-07T11:42:15.904Z,98404.72
2023-03-07T11:45:35.729Z,98412.44
2023-03-07T11:49:02.338Z,98402.47
2023-03-07T11:52:19.621Z,98398.81
2023-03-07T11:55:46.644Z,98402.75
2023-03-07T11:59:00.982Z,98386.63
2023-03-07T12:02:13.446Z,98383.28
2023-03-07T12:06:00.148Z,98388.50
2023-03-07T12:09:20.294Z,98380.34
2023-03-07T12:12:52.041Z,98371.22
2023-03-07T12:15:57.266Z,98374.72
2023-03-07T12:19:46.045Z,98367.28
2023-03-07T12:23:00.724Z,98377.34
2023-03-07T12:26:22.582Z,98361.03
2023-03-07T12:29:27.860Z,98379.56
2023-03-07T12:32:33.036Z,98353.22
2023-03-07T12:35:45.873Z,98368.56
2023-03-07T12:38:53.678Z,98368.47
2023-03-07T12:42:01.933Z,98371.25
2023-03-07T12:45:11.074Z,98363.16
2023-03-07T12:48:23.523Z,98361.28
2023-03-07T12:51:29.914Z,98362.22
2023-03-07T12:54:40.437Z,98351.53
2023-03-07T12:57:45.256Z,98352.34
2023-03-07T13:00:57.109Z,98345.94
2023-03-07T13:04:18.648Z,98339.44
2023-03-07T13:07:25.364Z,98332.31
2023-03-07T13:10:28.064Z,98342.69
2023-03-07T13:13:45.585Z,98330.94
2023-03-07T13:16:49.684Z,98336.03
2023-03-07T13:19:54.375Z,98333.66
2023-03-07T13:22:59.837Z,98332.81
2023-03-07T13:26:05.688Z,98326.94
2023-03-07T13:29:09.416Z,98330.69
2023-03-07T13:32:50.232Z,98315.09
2023-03-07T13:35:57.923Z,98313.50
2023-03-07T13:39:00.991Z,98315.09
2023-03-07T13:42:03.726Z,98303.56
2023-03-07T13:45:38.160Z,98305.69
2023-03-07T13:48:40.378Z,98301.94
2023-03-07T13:52:31.591Z,98293.38
2023-03-07T13:55:41.253Z,98293.09
2023-03-07T13:58:57.594Z,98295.78
2023-03-07T14:02:04.352Z,98293.34
2023-03-07T14:05:07.153Z,98295.22
2023-03-07T14:08:14.194Z,98278.06
2023-03-07T14:11:42.778Z,98291.72
2023-03-07T14:15:05.700Z,98282.34
2023-03-07T14:18:23.008Z,98275.63
2023-03-07T14:21:46.848Z,98277.22
2023-03-07T14:25:25.173Z,98267.84
2023-03-07T14:28:28.824Z,98256.84
2023-03-07T14:31:53.210Z,98257.91
2023-03-07T14:34:55.852Z,98257.13
2023-03-07T14:37:58.609Z,98232.41
2023-03-07T14:41:09.538Z,98255.50
2023-03-07T14:44:42.162Z,98263.28
2023-03-07T14:47:44.490Z,98264.09
2023-03-07T14:50:47.423Z,98246.88
2023-03-07T14:53:50.564Z,98258.94
2023-03-07T14:56:54.557Z,98255.19
2023-03-07T15:00:23.179Z,98245.53
2023-03-07T15:03:25.663Z,98247.69
2023-03-07T15:06:30.319Z,98245.19
2023-03-07T15:09:34.115Z,98240.97
2023-03-07T15:12:36.622Z,98220.00
2023-03-07T15:15:46.334Z,98240.69
2023-03-07T15:18:55.758Z,98235.84
2023-03-07T15:22:00.883Z,98230.19
2023-03-07T15:25:04.428Z,98229.34
2023-03-07T15:28:19.290Z,98231.19
2023-03-07T15:31:23.864Z,98231.25
2023-03-07T15:34:30.727Z,98221.00
2023-03-07T15:37:33.875Z,98226.31
2023-03-07T15:40:37.588Z,98236.31
2023-03-07T15:43:39.954Z,98240.88
2023-03-07T15:46:51.804Z,98216.44
2023-03-07T15:49:57.143Z,98189.38
2023-03-07T15:53:06.381Z,98193.66
2023-03-07T15:56:22.442Z,98204.44
2023-03-07T15:59:39.322Z,98200.41
2023-03-07T16:02:47.099Z,98188.81
2023-03-07T16:05:49.972Z,98186.94
2023-03-07T16:08:52.419Z,98176.22
2023-03-07T16:11:55.029Z,98182.44
2023-03-07T16:14:57.473Z,98166.03
2023-03-07T16:18:00.010Z,98167.09
2023-03-07T16:21:03.437Z,98151.00
2023-03-07T16:24:06.355Z,98161.88
2023-03-07T16:27:18.538Z,98153.84
2023-03-07T16:30:24.142Z,98151.44
2023-03-07T16:33:26.811Z,98143.38
2023-03-07T16:36:29.352Z,98139.84
2023-03-07T16:39:32.707Z,98137.50
2023-03-07T16:42:35.894Z,98145.50
2023-03-07T16:45:40.181Z,98120.28
2023-03-07T16:48:43.387Z,98121.34
2023-03-07T16:51:53.260Z,98094.84
2023-03-07T16:55:02.366Z,98081.69
2023-03-07T16:58:05.916Z,98112.81
2023-03-07T17:01:12.918Z,98111.28
2023-03-07T17:04:15.673Z,98106.16
2023-03-07T17:07:22.096Z,98086.59
2023-03-07T17:10:29.100Z,98104.59
2023-03-07T17:13:31.534Z,98106.97
2023-03-07T17:16:36.726Z,98092.00
2023-03-07T17:19:39.257Z,98090.63
2023-03-07T17:22:41.706Z,98080.19
2023-03-07T17:25:44.039Z,98079.41
2023-03-07T17:28:46.518Z,98092.56
2023-03-07T17:31:48.936Z,98071.91
2023-03-07T17:34:51.412Z,98082.88
2023-03-07T17:37:53.850Z,98127.41
2023-03-07T17:40:57.053Z,98138.44
2023-03-07T17:43:59.519Z,98134.66
2023-03-07T17:47:01.908Z,98139.63
2023-03-07T17:50:05.822Z,98157.31
2023-03-07T17:53:08.308Z,98158.25
2023-03-07T17:56:16.409Z,98164.53
2023-03-07T17:59:18.765Z,98173.88
2023-03-07T18:02:21.190Z,98189.03
2023-03-07T18:05:26.111Z,98197.94
2023-03-07T18:08:31.592Z,98193.38
2023-03-07T18:11:35.308Z,98192.47
2023-03-07T18:14:38.478Z,98202.06
2023-03-07T18:17:47.719Z,98200.09
2023-03-07T18:21:05.103Z,98211.13
2023-03-07T18:24:29.069Z,98207.19
2023-03-07T18:27:31.462Z,98200.84
2023-03-07T18:30:34.263Z,98210.22
2023-03-07T18:33:37.709Z,98198.13
2023-03-07T18:36:41.390Z,98215.03
2023-03-07T18:39:43.839Z,98223.75
2023-03-07T18:42:46.255Z,98224.97
2023-03-07T18:45:48.606Z,98213.56
2023-03-07T18:48:51.809Z,98186.19
2023-03-07T18:51:54.296Z,98186.72
2023-03-07T18:54:56.757Z,98168.88
2023-03-07T18:58:00.053Z,98162.97
2023-03-07T19:01:13.694Z,98164.56
2023-03-07T19:04:16.561Z,98178.50
2023-03-07T19:07:18.937Z,98164.28
2023-03-07T19:10:21.283Z,98167.91
2023-03-07T19:13:23.623Z,98172.00
2023-03-07T19:16:29.900Z,98173.38
2023-03-07T19:19:32.337Z,98167.81
2023-03-07T19:22:34.917Z,98168.59
2023-03-07T19:25:37.437Z,98168.72
2023-03-07T19:28:40.676Z,98176.53
2023-03-07T19:31:46.109Z,98163.59
2023-03-07T19:34:51.215Z,98178.63
2023-03-07T19:37:53.537Z,98176.75
2023-03-07T19:40:57.058Z,98181.25
2023-03-07T19:44:00.723Z,98176.88
2023-03-07T19:47:03.162Z,98195.97
2023-03-07T19:50:05.876Z,98196.94
2023-03-07T19:53:08.224Z,98204.50
2023-03-07T19:56:12.346Z,98208.50
2023-03-07T19:59:15.057Z,98163.91
2023-03-07T20:02:17.447Z,98202.03
2023-03-07T20:05:20.272Z,98222.88
2023-03-07T20:08:22.650Z,98201.47
2023-03-07T20:11:30.290Z,98218.47
2023-03-07T20:14:32.586Z,98221.03
2023-03-07T20:17:34.991Z,98221.38
2023-03-07T20:20:37.603Z,98217.28
2023-03-07T20:23:40.531Z,98218.03
2023-03-07T20:26:42.973Z,98217.50
2023-03-07T20:29:45.280Z,98231.28
2023-03-07T20:32:48.207Z,98220.44
2023-03-07T20:36:04.932Z,98227.19
2023-03-07T20:39:13.137Z,98233.59
2023-03-07T20:42:15.664Z,98242.41
2023-03-07T20:45:18.073Z,98235.69
2023-03-07T20:48:20.682Z,98238.88
2023-03-07T20:51:25.247Z,98247.19
2023-03-07T20:54:27.623Z,98241.56
2023-03-07T20:57:30.083Z,98230.25
2023-03-07T21:00:32.381Z,98238.88
2023-03-07T21:03:35.342Z,98233.75
2023-03-07T21:06:39.946Z,98237.19
2023-03-07T21:09:42.346Z,98242.81
2023-03-07T21:12:44.696Z,98236.81
2023-03-07T21:15:56.944Z,98256.69
2023-03-07T21:19:01.626Z,98255.31
2023-03-07T21:22:04.489Z,98268.22
2023-03-07T21:25:07.384Z,98273.56
2023-03-07T21:28:09.719Z,98263.84
2023-03-07T21:31:14.876Z,98267.91
2023-03-07T21:34:17.277Z,98261.13
2023-03-07T21:37:20.720Z,98266.47
2023-03-07T21:40:23.230Z,98271.66
2023-03-07T21:43:25.740Z,98271.69
2023-03-07T21:46:28.388Z,98278.56
2023-03-07T21:49:31.841Z,98276.34
2023-03-07T21:52:34.172Z,98271.16
2023-03-07T21:55:36.731Z,98274.97
2023-03-07T21:58:39.802Z,98276.91
2023-03-07T22:01:42.192Z,98289.81
2023-03-07T22:04:44.901Z,98284.72
2023-03-07T22:07:49.036Z,98293.56
2023-03-07T22:11:00.543Z,98293.34
2023-03-07T22:14:03.449Z,98290.69
2023-03-07T22:17:05.984Z,98289.81
2023-03-07T22:20:10.387Z,98281.72
2023-03-07T22:23:12.733Z,98289.59
2023-03-07T22:26:15.962Z,98289.41
2023-03-07T22:29:18.272Z,98289.41
2023-03-07T22:32:20.630Z,98281.44
2023-03-07T22:35:23.091Z,98294.03
2023-03-07T22:38:25.843Z,98307.13
2023-03-07T22:41:28.912Z,98282.75
2023-03-07T22:44:31.325Z,98300.91
2023-03-07T22:47:34.700Z,98272.16
2023-03-07T22:50:39.327Z,98298.53
2023-03-07T22:53:41.712Z,98273.28
2023-03-07T22:56:44.072Z,98310.38
2023-03-07T22:59:48.591Z,98303.31
2023-03-07T23:02:50.970Z,98318.34
2023-03-07T23:05:53.398Z,98314.53
2023-03-07T23:08:56.549Z,98317.03
2023-03-07T23:11:59.054Z,98319.66
2023-03-07T23:15:01.480Z,98313.97
2023-03-07T23:18:03.993Z,98326.88
2023-03-07T23:21:07.622Z,98280.25
2023-03-07T23:24:11.422Z,98327.69
2023-03-07T23:27:13.645Z,98320.34
2023-03-07T23:30:17.862Z,98329.53
2023-03-07T23:33:20.285Z,98336.00
2023-03-07T23:36:22.664Z,98314.47
2023-03-07T23:39:26.121Z,98336.81
2023-03-07T23:42:28.645Z,98344.34
2023-03-07T23:45:31.323Z,98340.03
2023-03-07T23:48:33.663Z,98343.41
2023-03-07T23:51:36.003Z,98345.97
2023-03-07T23:54:38.453Z,98335.13
2023-03-07T23:57:41.192Z,98344.09
